createdAt,value
2017-10-25T00:02:01.000Z,78.8
2017-10-25T00:18:49.000Z,78.8
2017-10-25T00:35:35.000Z,78.8
2017-10-25T00:52:21.000Z,78.8
2017-10-25T01:09:07.000Z,78.8
2017-10-25T01:25:53.000Z,78.8
2017-10-25T01:42:41.000Z,78.8
2017-10-25T01:59:27.000Z,78.4
2017-10-25T02:16:14.000Z,78.4
2017-10-25T02:33:00.000Z,78.4
2017-10-25T02:49:46.000Z,78.4
2017-10-25T03:06:32.000Z,78
2017-10-25T03:23:20.000Z,78
2017-10-25T03:40:06.000Z,78
2017-10-25T03:56:52.000Z,78
2017-10-25T04:13:38.000Z,77.6
2017-10-25T04:30:25.000Z,77.6
2017-10-25T04:47:11.000Z,77.6
2017-10-25T05:03:57.000Z,77.2
2017-10-25T05:20:45.000Z,77.2
2017-10-25T05:37:31.000Z,77.2
2017-10-25T05:54:18.000Z,76.8
2017-10-25T06:11:04.000Z,76.4
2017-10-25T06:27:51.000Z,76.4
2017-10-25T06:44:38.000Z,76
2017-10-25T07:01:24.000Z,76
2017-10-25T07:18:10.000Z,75.6
2017-10-25T07:51:45.000Z,75.6
2017-10-25T08:08:31.000Z,75.6
2017-10-25T08:25:18.000Z,75.2
2017-10-25T08:42:05.000Z,74.8
2017-10-25T08:58:53.000Z,74.8
2017-10-25T09:15:41.000Z,74.8
2017-10-25T09:32:28.000Z,74.4
2017-10-25T09:49:16.000Z,74.4
2017-10-25T10:06:03.000Z,74.4
2017-10-25T10:22:51.000Z,74.4
2017-10-25T10:39:39.000Z,74.4
2017-10-25T10:56:26.000Z,74
2017-10-25T11:13:13.000Z,74
2017-10-25T11:30:00.000Z,74
2017-10-25T11:46:49.000Z,74
2017-10-25T12:03:36.000Z,74
2017-10-25T12:20:23.000Z,74
2017-10-25T12:37:11.000Z,74
2017-10-25T12:53:58.000Z,74
2017-10-25T13:10:46.000Z,74
2017-10-25T13:27:33.000Z,74
2017-10-25T13:44:22.000Z,74
2017-10-25T14:01:09.000Z,74
2017-10-25T14:17:57.000Z,74
2017-10-25T14:34:44.000Z,74
2017-10-25T14:51:31.000Z,74
2017-10-25T15:08:19.000Z,74
2017-10-25T15:25:07.000Z,74
2017-10-25T15:41:54.000Z,74
2017-10-25T15:58:42.000Z,74
2017-10-25T16:15:30.000Z,73.6
2017-10-25T16:32:17.000Z,74
2017-10-25T16:49:03.000Z,73.6
2017-10-25T17:05:50.000Z,73.6
2017-10-25T17:22:37.000Z,74
2017-10-25T17:39:24.000Z,74
2017-10-25T17:56:11.000Z,74
2017-10-25T18:12:57.000Z,74
2017-10-25T18:29:44.000Z,74.4
2017-10-25T18:46:30.000Z,74.4
2017-10-25T19:03:17.000Z,74
2017-10-25T19:20:03.000Z,74
2017-10-25T19:36:50.000Z,74
2017-10-25T19:53:36.000Z,74
2017-10-25T20:10:23.000Z,74
2017-10-25T20:27:10.000Z,74
2017-10-25T20:43:56.000Z,74
2017-10-25T21:00:42.000Z,74
2017-10-25T21:17:29.000Z,74
2017-10-25T21:34:16.000Z,74
2017-10-25T21:51:02.000Z,74
2017-10-25T22:07:48.000Z,74
2017-10-25T22:24:35.000Z,74.4
2017-10-25T22:41:22.000Z,74.4
2017-10-25T22:58:08.000Z,74.4
2017-10-25T23:14:54.000Z,74.4
2017-10-25T23:31:40.000Z,74.4
2017-10-25T23:48:26.000Z,74.4
